Mentor, MN

11:45 PM CDT on July 24, 2014 (GMT -0500)
Rural Gentilly (KMNREDLA2) Elev 1014 ft | 47.82 °N, 96.37 °W | Change Station

Current weather conditions updated 8 minutes ago

Mostly Cloudy
Mostly Cloudy
66.0 °F
Feels Like 66.0 °F
N
3.8
Wind Variable Wind from East

Tomorrow is forecast to be Cooler than today.

Today
High -- | Low -- °F
--% Chance of Precip.
Yesterday
High -- | Low -- °F
Precip. -- in
5:52 AM 9:09 PM
Waning Crescent, 3% visible
Pressure 29.86 in
Visibility 10.0 miles
Clouds Scattered Clouds 6500 ft
Dew Point 63 °F
Humidity 89%
Rainfall 0.00 in
Snow Depth Not available.
UV 0 out of 12
Pollen 7.40 out of 12
Air Quality Not available.
Flu Activity Not available.
METAR KFSE 250435Z AUTO 13005KT 10SM SCT065 18/13 A2986 RMK AO2

More Conditions Fewer Conditions

Pressure 29.86 in
Visibility 10.0 miles
Clouds Scattered Clouds 6500 ft
Dew Point 63 °F
Humidity 89%
Rainfall 0.00 in
Snow Depth Not available.
UV 0 out of 12
Pollen 7.40 out of 12
Air Quality Not available.
Flu Activity Not available.
METAR KFSE 250435Z AUTO 13005KT 10SM SCT065 18/13 A2986 RMK AO2

More Conditions Fewer Conditions

10-Day Weather Forecast

Almanac

Astronomy

Jul. 24, 2014 Rise Set
Actual Time 5:52 AM CDT 9:09 PM CDT
Civil Twilight 5:14 AM CDT 9:46 PM CDT
Nautical Twilight 4:25 AM CDT 10:35 PM CDT
Astronomical Twilight 3:22 AM CDT 11:37 PM CDT
Moon 4:02 AM CDT (7/24) 7:23 PM CDT (7/24)
Length of Visible Light 16h 32m
Length of Day
15h 17m
Tomorrow will be 2m 22s shorter.
Waning Crescent, 3% of the Moon is Illuminated
Jul 25
Waning Crescent
Jul 26
New
Aug 3
First Quarter
Aug 10
Full
Aug 17
Last Quarter

Yesterday's Extremes

State Highs State Lows

Community

WunderPhotos

Upload Photos

1,737,244 photos uploaded!

Nearby

Snow Depth

Station Depth Elevation
No new snow has been reported.

Earthquake Activity

City Distance Mag. Time & Date
No recent earthquake activity has been reported nearby.
Minimum magnitude displayed is 2.5.

Coastal Water Temperatures

Place Temperature
No Stations Reporting

Nearby Weather Stations

Station Location Temp. Heat Index Dew Point Humidity Wind Precip. Elev Updated Type
MesoWest GLACIAL RIDGE , Mentor, MN 72 °F 75 °F 60 °F 67% South  at  5 mph 0.00 in / hr 1125 ft 8:00 PM CDT MADIS
Rural Gentilly, Red Lake Falls, MN 66.0 °F - 63 °F 89% East  at  3.8 mph - / hr 1014 ft 11:37 PM CDT Normal

Show More Stations Show Fewer Stations